Flight Track Log - Related Links

Times and Time Zones

All times are in EDT time to prevent confusion due to time zone crossing. See the FLG4262 flight status page for this flight to view local times or setup timezone preferences in your user account.

Time Position Orientation Groundspeed Altitude Reporting Facility
EDT Latitude Longitude Course Direction KTS MPH feet Rate Location/Type
Fri 04:23:38 PM 42.2075 -83.3503 169° South 154 177 1,200  Level Cleveland Center
Fri 04:24:57 PM 42.1439 -83.3331 169° South 200 230 4,200 2,087 Climbing Cleveland Center
Fri 04:25:10 PM 42.1428 -83.3336 200° South 181 208 4,400 1,745 Climbing Cleveland Center
Fri 04:25:52 PM 42.0972 -83.2842 141° Southeast 286 329 5,800 2,613 Climbing Cleveland Center
Fri 04:26:12 PM 42.0792 -83.2564 131° Southeast 259 298 7,100 3,148 Climbing Cleveland Center
Fri 04:26:53 PM 42.0947 -83.1797 75° East 341 392 9,000 2,613 Climbing Cleveland Center
Fri 04:27:14 PM 42.1194 -83.1528 39° Northeast 331 381 9,800 1,967 Climbing Cleveland Center
Fri 04:27:54 PM 42.1606 -83.0875 50° Northeast 364 419 11,000 1,645 Climbing Cleveland Center
Fri 04:28:16 PM 42.1739 -83.0431 68° East 370 426 11,500 1,527 Climbing Cleveland Center
Fri 04:28:49 PM 42.1986 -82.9689 66° East 385 443 12,400 1,429 Climbing Cleveland Center
Fri 04:29:19 PM 42.2172 -82.9122 66° East 385 443 13,000 457 Climbing Cleveland Center
Fri 04:30:21 PM 42.2664 -82.7650 66° East 428 493 13,100 1,065 Climbing Cleveland Center
Fri 04:31:23 PM 42.3153 -82.6175 66° East 434 499 15,200 2,177 Climbing Cleveland Center
Fri 04:32:25 PM 42.3700 -82.4417 67° East 427 491 17,600 2,032 Climbing Cleveland Center
Fri 04:33:27 PM 42.3628 -82.2919 94° East 394 453 19,400 1,500 Climbing Cleveland Center
Fri 04:34:29 PM 42.3561 -82.1286 93° East 406 467 20,700 1,210 Climbing Cleveland Center
Fri 04:35:31 PM 42.3492 -81.9703 93° East 412 474 21,900 1,113 Climbing Cleveland Center
Fri 04:36:33 PM 42.3422 -81.8097 93° East 420 483 23,000 912 Climbing Cleveland Center
Fri 04:37:36 PM 42.3342 -81.6475 94° East 425 489 23,800 816 Climbing Cleveland Center
Fri 04:38:38 PM 42.3267 -81.4806 93° East 438 504 24,700 823 Climbing Cleveland Center
Fri 04:39:40 PM 42.3192 -81.3106 93° East 443 510 25,500 726 Climbing Cleveland Center
Fri 04:40:42 PM 42.3097 -81.1422 94° East 443 510 26,200 581 Climbing Cleveland Center
Fri 04:41:44 PM 42.3006 -80.9711 94° East 448 516 26,700 387 Climbing Cleveland Center
Fri 04:42:46 PM 42.2903 -80.7650 94° East 459 528 27,000 145 Climbing Cleveland Center
Fri 04:43:48 PM 42.2808 -80.5839 94° East 474 545 27,000  Level Cleveland Center
Fri 04:44:50 PM 42.2706 -80.3978 94° East 487 560 27,000  Level Cleveland Center
Fri 04:45:52 PM 42.2592 -80.2089 95° East 496 571 27,000  Level Cleveland Center
Fri 04:46:55 PM 42.2478 -80.0175 95° East 502 578 27,000  Level Cleveland Center
Fri 04:47:57 PM 42.2358 -79.8097 94° East 504 580 27,000  Level Cleveland Center
Fri 04:48:59 PM 42.2389 -79.6142 89° East 522 601 27,000  Level Cleveland Center
Fri 04:50:01 PM 42.2406 -79.4194 89° East 522 601 27,000 -484 Level Cleveland Center
Fri 04:51:03 PM 42.2400 -79.2278 90° East 517 595 26,000 -968 Descending Cleveland Center
Fri 04:52:05 PM 42.2411 -79.0347 89° East 517 595 25,000 -484 Descending Cleveland Center
Fri 04:53:07 PM 42.2408 -78.8275 90° East 494 568 25,000  Level Cleveland Center
Fri 04:54:09 PM 42.2422 -78.6469 89° East 489 563 25,000  Level Cleveland Center
Fri 04:55:11 PM 42.2411 -78.4661 90° East 488 562 25,000 -435 Level Cleveland Center
Fri 04:56:13 PM 42.2403 -78.2525 90° East 484 557 24,100 -1,403 Descending Cleveland Center
Fri 04:57:15 PM 42.2394 -78.0750 90° East 481 554 22,100 -1,920 Descending Cleveland Center
Fri 04:58:18 PM 42.2383 -77.9028 90° East 470 541 20,100 -2,112 Descending Cleveland Center
Fri 04:59:20 PM 42.2358 -77.7408 91° East 445 512 17,700 -2,129 Descending Cleveland Center
Fri 05:00:22 PM 42.2356 -77.5850 90° East 426 490 15,700 -2,032 Descending Cleveland Center
Fri 05:01:24 PM 42.2333 -77.4064 91° East 407 468 13,500 -2,081 Descending Cleveland Center
Fri 05:02:26 PM 42.2328 -77.2614 90° East 397 457 11,400 -1,839 Descending Cleveland Center
Fri 05:03:28 PM 42.2308 -77.1186 91° East 390 449 9,700 -1,210 Descending Cleveland Center
Fri 05:04:30 PM 42.2286 -77.0003 91° East 322 371 8,900 -339 Descending Cleveland Center
Fri 05:05:32 PM 42.2269 -76.8842 91° East 310 357 9,000 -532 Climbing Cleveland Center
Fri 05:06:34 PM 42.2239 -76.7394 92° East 321 369 7,800 -1,355 Descending Cleveland Center
Fri 05:07:36 PM 42.2428 -76.6289 77° East 315 362 6,200 -1,645 Descending Cleveland Center
Fri 05:08:38 PM 42.2769 -76.5239 66° East 311 358 4,400 -1,113 Descending Cleveland Center
Fri 05:09:40 PM 42.3106 -76.4308 64° Northeast 295 339 3,900 -242 Descending Cleveland Center
Fri 05:10:42 PM 42.3439 -76.3297 66° East 277 319 3,900  Level Cleveland Center
Fri 05:11:44 PM 42.3536 -76.2444 81° East 233 268 3,900  Level Cleveland Center
Fri 05:12:46 PM 42.3600 -76.1700 83° East 204 235 3,900 48 Level Cleveland Center
Fri 05:13:48 PM 42.3506 -76.1031 101° East 198 228 4,000 -118 Climbing Cleveland Center
Fri 05:15:19 PM 42.2928 -76.0578 150° Southeast 153 176 3,600 -358 Descending New York Center
Fri 05:16:19 PM 42.2667 -76.0358 148° Southeast 138 159 3,100 -600 Descending New York Center
Fri 05:17:19 PM 42.2431 -76.0089 140° Southeast 124 143 2,400 -450 Descending New York Center
Fri 05:18:19 PM 42.2147 -75.9897 153° Southeast 119 137 2,200 -200 Descending New York Center

Login

Don't have an account? Register now (free) for customized features, flight alerts, and more!